createdAt,value
2018-09-09T00:00:16.378Z,14.38
2018-09-09T00:01:16.344Z,14.36
2018-09-09T00:02:16.325Z,14.35
2018-09-09T00:03:16.284Z,14.38
2018-09-09T00:04:16.274Z,14.35
2018-09-09T00:05:16.239Z,14.36
2018-09-09T00:06:16.229Z,14.26
2018-09-09T00:07:16.201Z,14.36
2018-09-09T00:08:16.171Z,14.30
2018-09-09T00:09:16.132Z,14.23
2018-09-09T00:10:16.118Z,14.24
2018-09-09T00:11:16.079Z,14.19
2018-09-09T00:12:16.066Z,14.26
2018-09-09T00:13:16.029Z,14.26
2018-09-09T00:14:16.023Z,14.20
2018-09-09T00:15:15.996Z,14.06
2018-09-09T00:16:16.964Z,14.24
2018-09-09T00:17:15.930Z,14.21
2018-09-09T00:18:17.934Z,14.16
2018-09-09T00:19:15.890Z,14.21
2018-09-09T00:20:15.881Z,14.11
2018-09-09T00:21:15.823Z,14.20
2018-09-09T00:22:16.821Z,14.17
2018-09-09T00:23:15.775Z,14.23
2018-09-09T00:24:15.756Z,14.20
2018-09-09T00:25:15.714Z,14.21
2018-09-09T00:26:15.703Z,14.11
2018-09-09T00:27:15.666Z,14.16
2018-09-09T00:28:16.658Z,14.12
2018-09-09T00:29:15.621Z,14.06
2018-09-09T00:30:15.605Z,14.17
2018-09-09T00:31:15.572Z,14.17
2018-09-09T00:32:15.548Z,14.20
2018-09-09T00:33:15.519Z,14.17
2018-09-09T00:34:15.515Z,14.11
2018-09-09T00:35:15.484Z,14.13
2018-09-09T00:36:15.467Z,14.13
2018-09-09T00:37:15.458Z,14.16
2018-09-09T00:38:15.407Z,14.05
2018-09-09T00:39:15.369Z,14.11
2018-09-09T00:40:15.361Z,14.05
2018-09-09T00:41:15.316Z,14.05
2018-09-09T00:42:15.300Z,14.08
2018-09-09T00:43:15.266Z,14.04
2018-09-09T00:44:15.266Z,14.19
2018-09-09T00:45:15.217Z,14.19
2018-09-09T00:46:15.198Z,14.13
2018-09-09T00:47:15.170Z,13.99
2018-09-09T00:48:15.205Z,14.01
2018-09-09T00:49:15.189Z,14.01
2018-09-09T00:50:15.104Z,14.02
2018-09-09T00:51:15.080Z,14.04
2018-09-09T00:52:15.039Z,14.09
2018-09-09T00:53:15.013Z,14.16
2018-09-09T00:54:15.010Z,14.13
2018-09-09T00:55:14.983Z,14.11
2018-09-09T00:56:14.955Z,14.16
2018-09-09T00:57:14.910Z,14.17
2018-09-09T00:58:35.904Z,14.04
2018-09-09T00:59:14.855Z,14.11
2018-09-09T01:00:14.831Z,14.16
2018-09-09T01:01:14.827Z,14.08
2018-09-09T01:02:14.780Z,14.12
2018-09-09T01:03:14.749Z,14.11
2018-09-09T01:04:14.745Z,14.17
2018-09-09T01:05:14.706Z,14.23
2018-09-09T01:06:14.670Z,14.23
2018-09-09T01:07:14.661Z,14.24
2018-09-09T01:08:14.624Z,14.08
2018-09-09T01:09:14.600Z,14.21
2018-09-09T01:10:14.585Z,14.16
2018-09-09T01:11:14.561Z,14.30
2018-09-09T01:12:14.522Z,14.29
2018-09-09T01:13:15.509Z,14.26
2018-09-09T01:14:14.483Z,14.19
2018-09-09T01:15:14.460Z,14.11
2018-09-09T01:16:14.425Z,14.17
2018-09-09T01:17:14.418Z,14.13
2018-09-09T01:18:14.375Z,14.21
2018-09-09T01:19:14.345Z,14.24
2018-09-09T01:20:14.317Z,14.12
2018-09-09T01:21:14.300Z,14.26
2018-09-09T01:22:14.275Z,14.17
2018-09-09T01:23:14.247Z,14.21
2018-09-09T01:24:14.216Z,14.21
2018-09-09T01:25:14.188Z,14.13
2018-09-09T01:26:14.164Z,14.16
2018-09-09T01:27:14.143Z,14.06
2018-09-09T01:28:14.121Z,14.20
2018-09-09T01:29:14.095Z,14.06
2018-09-09T01:30:14.060Z,14.08
2018-09-09T01:31:15.045Z,14.11
2018-09-09T01:32:14.011Z,14.19
2018-09-09T01:33:14.005Z,14.16
2018-09-09T01:34:13.977Z,14.12
2018-09-09T01:35:13.936Z,14.12
2018-09-09T01:36:13.910Z,14.02
2018-09-09T01:37:13.888Z,14.04
2018-09-09T01:38:13.861Z,14.02
2018-09-09T01:39:13.833Z,14.01
2018-09-09T01:40:13.813Z,14.09
2018-09-09T01:41:13.783Z,14.06
2018-09-09T01:42:13.766Z,14.01
2018-09-09T01:43:13.737Z,14.05
2018-09-09T01:44:13.699Z,14.08
2018-09-09T01:45:13.675Z,14.05
2018-09-09T01:46:13.650Z,13.99
2018-09-09T01:47:13.628Z,14.16
2018-09-09T01:48:13.601Z,14.12
2018-09-09T01:49:13.587Z,14.13
2018-09-09T01:50:13.558Z,14.05
2018-09-09T01:51:14.536Z,14.01
2018-09-09T01:52:13.496Z,14.12
2018-09-09T01:53:13.475Z,13.98
2018-09-09T01:54:13.440Z,14.01
2018-09-09T01:55:13.441Z,14.11
2018-09-09T01:56:13.398Z,14.05
2018-09-09T01:57:13.372Z,14.08
2018-09-09T01:58:13.361Z,14.02
2018-09-09T01:59:13.311Z,14.05
2018-09-09T02:00:13.307Z,14.08
2018-09-09T02:01:13.273Z,14.12
2018-09-09T02:02:13.261Z,14.13
2018-09-09T02:03:13.211Z,14.17
2018-09-09T02:04:13.197Z,14.13
2018-09-09T02:05:13.161Z,14.11
2018-09-09T02:06:13.133Z,14.20
2018-09-09T02:07:13.140Z,14.23
2018-09-09T02:08:13.086Z,14.11
2018-09-09T02:09:13.068Z,14.08
2018-09-09T02:10:13.033Z,14.06
2018-09-09T02:11:13.002Z,14.05
2018-09-09T02:12:12.999Z,13.99
2018-09-09T02:13:12.982Z,14.19
2018-09-09T02:14:12.931Z,14.09
2018-09-09T02:15:12.905Z,14.11
2018-09-09T02:16:12.901Z,14.09
2018-09-09T02:17:12.885Z,14.16
2018-09-09T02:18:12.843Z,14.08
2018-09-09T02:19:12.794Z,14.19
2018-09-09T02:20:12.776Z,14.11
2018-09-09T02:21:12.771Z,14.13
2018-09-09T02:22:12.727Z,14.13
2018-09-09T02:23:12.704Z,14.19
2018-09-09T02:24:12.679Z,14.17
2018-09-09T02:25:12.648Z,14.09
2018-09-09T02:26:12.630Z,14.11
2018-09-09T02:27:12.605Z,14.20
2018-09-09T02:28:13.584Z,14.16
2018-09-09T02:29:12.547Z,14.08
2018-09-09T02:30:12.524Z,14.19
2018-09-09T02:31:12.492Z,14.24
2018-09-09T02:32:12.491Z,14.19
2018-09-09T02:33:12.433Z,14.23
2018-09-09T02:34:12.423Z,14.26
2018-09-09T02:35:12.394Z,14.13
2018-09-09T02:36:12.359Z,14.23
2018-09-09T02:37:12.333Z,14.19
2018-09-09T02:38:12.308Z,14.21
2018-09-09T02:39:12.278Z,14.16
2018-09-09T02:40:12.257Z,14.35
2018-09-09T02:41:12.276Z,14.17
2018-09-09T02:42:12.203Z,14.19
2018-09-09T02:43:12.191Z,14.23
2018-09-09T02:44:12.161Z,14.23
2018-09-09T02:45:12.144Z,14.23
2018-09-09T02:46:12.108Z,14.20
2018-09-09T02:47:12.128Z,14.26
2018-09-09T02:48:12.053Z,14.23
2018-09-09T02:49:12.025Z,14.30
2018-09-09T02:50:11.997Z,14.26
2018-09-09T02:51:11.978Z,14.31
2018-09-09T02:52:11.956Z,14.19
2018-09-09T02:53:11.921Z,14.23
2018-09-09T02:54:11.898Z,14.21
2018-09-09T02:55:11.874Z,14.13
2018-09-09T02:56:11.847Z,14.20
2018-09-09T02:57:11.814Z,14.12
2018-09-09T02:58:12.795Z,14.11
2018-09-09T02:59:11.764Z,14.08
2018-09-09T03:00:11.735Z,14.13
2018-09-09T03:01:11.710Z,14.13
2018-09-09T03:02:11.686Z,14.17
2018-09-09T03:03:11.655Z,14.05
2018-09-09T03:04:11.657Z,14.12
2018-09-09T03:05:11.619Z,14.17
2018-09-09T03:06:11.596Z,14.05
2018-09-09T03:07:11.555Z,14.16
2018-09-09T03:08:11.536Z,13.99
2018-09-09T03:09:11.512Z,14.13
2018-09-09T03:10:11.495Z,14.08
2018-09-09T03:11:11.455Z,14.01
2018-09-09T03:12:11.429Z,14.04
2018-09-09T03:13:11.411Z,14.09
2018-09-09T03:14:11.380Z,14.16
2018-09-09T03:15:11.352Z,14.16
2018-09-09T03:16:13.378Z,14.02
2018-09-09T03:17:11.297Z,13.99
2018-09-09T03:18:12.272Z,14.11
2018-09-09T03:19:11.248Z,14.17
2018-09-09T03:20:11.239Z,14.01
2018-09-09T03:21:11.195Z,14.06
2018-09-09T03:22:11.168Z,14.16
2018-09-09T03:23:11.165Z,14.04
2018-09-09T03:24:11.119Z,14.11
2018-09-09T03:25:11.086Z,14.12
2018-09-09T03:26:11.068Z,14.09
2018-09-09T03:27:11.036Z,14.13
2018-09-09T03:28:11.028Z,14.17
2018-09-09T03:29:10.974Z,14.12
2018-09-09T03:30:11.007Z,14.13
2018-09-09T03:31:10.929Z,14.16
2018-09-09T03:32:10.915Z,14.09
2018-09-09T03:33:10.886Z,14.08
2018-09-09T03:34:10.870Z,14.01
2018-09-09T03:35:10.846Z,14.09
2018-09-09T03:36:10.817Z,14.04
2018-09-09T03:37:10.785Z,14.02
2018-09-09T03:38:10.763Z,13.96
2018-09-09T03:39:10.730Z,14.04
2018-09-09T03:40:10.734Z,13.91
2018-09-09T03:41:10.682Z,14.11
2018-09-09T03:42:11.662Z,14.11
2018-09-09T03:43:10.633Z,14.01
2018-09-09T03:44:10.599Z,14.02
2018-09-09T03:45:10.577Z,14.02
2018-09-09T03:46:10.558Z,14.09
2018-09-09T03:47:10.521Z,14.04
2018-09-09T03:48:10.507Z,14.13
2018-09-09T03:49:10.476Z,14.05
2018-09-09T03:50:11.483Z,14.01
2018-09-09T03:51:10.433Z,14.09
2018-09-09T03:52:10.409Z,13.99
2018-09-09T03:53:10.369Z,14.06
2018-09-09T03:54:10.375Z,14.02
2018-09-09T03:55:10.321Z,13.99
2018-09-09T03:56:10.295Z,14.09
2018-09-09T03:57:10.281Z,14.13
2018-09-09T03:58:10.254Z,14.16
2018-09-09T03:59:10.221Z,14.08
2018-09-09T04:00:10.200Z,14.13
2018-09-09T04:01:10.168Z,14.08
2018-09-09T04:02:10.146Z,14.12
2018-09-09T04:03:10.117Z,14.11
2018-09-09T04:04:10.085Z,14.16
2018-09-09T04:05:10.067Z,14.24
2018-09-09T04:06:10.037Z,14.12
2018-09-09T04:07:10.008Z,14.13
2018-09-09T04:08:10.980Z,14.24
2018-09-09T04:09:09.953Z,14.11
2018-09-09T04:10:09.990Z,14.21
2018-09-09T04:11:09.930Z,14.13
2018-09-09T04:12:10.887Z,14.17
2018-09-09T04:13:09.876Z,14.12
2018-09-09T04:14:09.851Z,14.13
2018-09-09T04:15:09.808Z,14.11
2018-09-09T04:16:09.783Z,14.23
2018-09-09T04:17:09.744Z,14.21
2018-09-09T04:18:09.729Z,14.17
2018-09-09T04:19:09.717Z,14.26
2018-09-09T04:20:09.687Z,14.19
2018-09-09T04:21:09.654Z,14.21
2018-09-09T04:22:09.633Z,14.17
2018-09-09T04:23:09.603Z,14.20
2018-09-09T04:24:09.565Z,14.19
2018-09-09T04:25:09.535Z,14.21
2018-09-09T04:26:09.524Z,14.12
2018-09-09T04:27:09.489Z,14.11
2018-09-09T04:28:09.509Z,14.16
2018-09-09T04:29:09.442Z,14.11
2018-09-09T04:30:09.421Z,14.08
2018-09-09T04:31:09.387Z,14.19
2018-09-09T04:32:09.363Z,14.16
2018-09-09T04:33:09.346Z,14.12
2018-09-09T04:34:09.327Z,14.04
2018-09-09T04:35:09.287Z,14.17
2018-09-09T04:36:09.261Z,14.09
2018-09-09T04:37:09.236Z,14.04
2018-09-09T04:38:09.220Z,14.05
2018-09-09T04:39:09.180Z,14.04
2018-09-09T04:40:09.151Z,14.11
2018-09-09T04:41:09.123Z,13.96
2018-09-09T04:42:09.120Z,13.96
2018-09-09T04:43:09.079Z,14.01
2018-09-09T04:44:09.052Z,14.04
2018-09-09T04:45:09.022Z,14.05
2018-09-09T04:46:09.024Z,14.01
2018-09-09T04:47:08.992Z,14.11
2018-09-09T04:48:08.953Z,14.17
2018-09-09T04:49:08.929Z,14.11
2018-09-09T04:50:08.935Z,13.99
2018-09-09T04:51:08.881Z,14.04
2018-09-09T04:52:08.860Z,14.09
2018-09-09T04:53:08.820Z,14.17
2018-09-09T04:54:08.802Z,14.05
2018-09-09T04:55:08.812Z,14.13
2018-09-09T04:56:08.750Z,14.17
2018-09-09T04:57:08.732Z,14.08
2018-09-09T04:58:08.707Z,14.02
2018-09-09T04:59:08.663Z,14.19
2018-09-09T05:00:08.644Z,14.02
2018-09-09T05:01:08.626Z,14.01
2018-09-09T05:02:08.589Z,14.09
2018-09-09T05:03:08.573Z,14.04
2018-09-09T05:04:08.535Z,14.17
2018-09-09T05:05:08.513Z,14.11
2018-09-09T05:06:08.488Z,14.16
2018-09-09T05:07:08.459Z,14.13
2018-09-09T05:08:08.437Z,14.04
2018-09-09T05:09:08.452Z,14.04
2018-09-09T05:10:08.387Z,14.08
2018-09-09T05:11:08.353Z,14.09
2018-09-09T05:12:09.335Z,14.20
2018-09-09T05:13:08.308Z,14.09
2018-09-09T05:14:08.290Z,14.17
2018-09-09T05:15:08.269Z,14.20
2018-09-09T05:16:08.224Z,14.23
2018-09-09T05:17:08.191Z,14.24
2018-09-09T05:18:09.205Z,14.24
2018-09-09T05:19:08.145Z,14.23
2018-09-09T05:20:08.121Z,14.21
2018-09-09T05:21:08.091Z,14.23
2018-09-09T05:22:08.071Z,14.26
2018-09-09T05:23:08.050Z,14.26
2018-09-09T05:24:08.045Z,14.30
2018-09-09T05:25:07.983Z,14.35
2018-09-09T05:26:07.968Z,14.35
2018-09-09T05:27:07.951Z,14.27
2018-09-09T05:28:07.934Z,14.30
2018-09-09T05:29:07.875Z,14.31
2018-09-09T05:30:07.861Z,14.30
2018-09-09T05:31:07.853Z,14.35
2018-09-09T05:32:07.825Z,14.30
2018-09-09T05:33:07.785Z,14.39
2018-09-09T05:34:07.771Z,14.39
2018-09-09T05:35:07.768Z,14.41
2018-09-09T05:36:07.718Z,14.42
2018-09-09T05:37:07.672Z,14.42
2018-09-09T05:38:07.660Z,14.46
2018-09-09T05:39:07.627Z,14.46
2018-09-09T05:40:08.596Z,14.54
2018-09-09T05:41:07.579Z,14.61
2018-09-09T05:42:07.582Z,14.56
2018-09-09T05:43:07.513Z,14.61
2018-09-09T05:44:07.504Z,14.64
2018-09-09T05:45:07.502Z,14.60
2018-09-09T05:46:54.458Z,14.71
2018-09-09T05:47:54.370Z,14.79
2018-09-09T05:48:54.365Z,14.69
2018-09-09T05:49:54.330Z,14.74
2018-09-09T05:50:54.323Z,14.78
2018-09-09T05:51:54.300Z,14.79
2018-09-09T05:52:54.252Z,14.91
2018-09-09T05:53:54.251Z,15.00
2018-09-09T05:54:54.199Z,14.91
2018-09-09T05:55:54.169Z,14.95
2018-09-09T05:56:54.191Z,14.91
2018-09-09T05:57:54.223Z,15.09
2018-09-09T05:58:54.096Z,15.03
2018-09-09T05:59:54.093Z,15.15
2018-09-09T06:00:54.065Z,15.05
2018-09-09T06:01:54.008Z,15.15
2018-09-09T06:02:54.004Z,15.18
2018-09-09T06:03:53.994Z,15.23
2018-09-09T06:04:53.935Z,15.16
2018-09-09T06:05:53.922Z,15.23
2018-09-09T06:06:53.942Z,15.25
2018-09-09T06:07:53.863Z,15.30
2018-09-09T06:08:53.831Z,15.35
2018-09-09T06:09:53.811Z,15.38
2018-09-09T06:10:53.811Z,15.41
2018-09-09T06:11:53.756Z,15.46
2018-09-09T06:12:53.766Z,15.49
2018-09-09T06:13:53.715Z,15.43
2018-09-09T06:14:53.689Z,15.44
2018-09-09T06:15:53.650Z,15.53
2018-09-09T06:16:53.633Z,15.53
2018-09-09T06:17:53.619Z,15.56
2018-09-09T06:18:53.578Z,15.56
2018-09-09T06:19:53.554Z,15.58
2018-09-09T06:20:54.545Z,15.59
2018-09-09T06:21:53.500Z,15.68
2018-09-09T06:22:53.524Z,15.70
2018-09-09T06:23:53.450Z,15.68
2018-09-09T06:24:53.423Z,15.74
2018-09-09T06:25:53.405Z,15.67
2018-09-09T06:26:53.379Z,15.71
2018-09-09T06:27:53.348Z,15.85
2018-09-09T06:28:53.336Z,15.84
2018-09-09T06:29:53.306Z,15.88
2018-09-09T06:30:53.282Z,15.95
2018-09-09T06:31:53.268Z,16.06
2018-09-09T06:32:53.226Z,16.14
2018-09-09T06:33:53.251Z,16.13
2018-09-09T06:34:53.183Z,16.13
2018-09-09T06:36:42.169Z,16.14
2018-09-09T06:37:42.099Z,16.11
2018-09-09T06:38:42.069Z,16.11
2018-09-09T06:39:44.060Z,16.08
2018-09-09T06:40:42.017Z,16.10
2018-09-09T06:41:46.790Z,16.06
2018-09-09T06:42:41.965Z,16.11
2018-09-09T06:43:47.820Z,16.11
2018-09-09T06:44:41.911Z,16.13
2018-09-09T06:45:41.915Z,16.13
2018-09-09T06:46:41.865Z,16.17
2018-09-09T06:47:43.848Z,16.26
2018-09-09T06:48:41.818Z,16.32
2018-09-09T06:49:41.797Z,16.37
2018-09-09T06:50:41.760Z,16.30
2018-09-09T06:51:41.736Z,16.52
2018-09-09T06:52:41.728Z,16.50
2018-09-09T06:53:41.694Z,16.65
2018-09-09T06:54:41.669Z,16.67
2018-09-09T06:55:42.666Z,16.66
2018-09-09T06:56:41.633Z,16.75
2018-09-09T06:57:42.586Z,16.85
2018-09-09T06:58:41.554Z,16.92
2018-09-09T06:59:41.536Z,16.88
2018-09-09T07:00:41.507Z,16.92
2018-09-09T07:01:41.514Z,17.10
2018-09-09T07:02:41.450Z,17.05
2018-09-09T07:03:41.436Z,17.18
2018-09-09T07:04:41.404Z,17.07
2018-09-09T07:05:41.393Z,17.17
2018-09-09T07:06:41.352Z,17.22
2018-09-09T07:07:41.359Z,17.20
2018-09-09T07:08:41.318Z,17.15
2018-09-09T07:09:41.303Z,17.25
2018-09-09T07:10:41.284Z,17.27
2018-09-09T07:11:41.367Z,17.38
2018-09-09T07:12:41.221Z,17.40
2018-09-09T07:13:41.191Z,17.45
2018-09-09T07:14:41.161Z,17.49
2018-09-09T07:15:41.189Z,17.68
2018-09-09T07:16:41.118Z,17.68
2018-09-09T07:17:41.084Z,17.87
2018-09-09T07:18:41.052Z,17.92
2018-09-09T07:19:41.029Z,17.98
2018-09-09T07:20:40.994Z,18.07
2018-09-09T07:21:41.075Z,18.20
2018-09-09T07:22:41.063Z,18.28
2018-09-09T07:23:40.938Z,18.25
2018-09-09T07:24:40.916Z,18.23
2018-09-09T07:25:40.882Z,18.35
2018-09-09T07:26:40.853Z,18.41
2018-09-09T07:27:40.874Z,18.49
2018-09-09T07:28:40.884Z,18.60
2018-09-09T07:29:40.809Z,18.59
2018-09-09T07:30:40.753Z,18.59
2018-09-09T07:31:40.738Z,18.66
2018-09-09T07:32:40.705Z,18.68
2018-09-09T07:33:40.686Z,18.65
2018-09-09T07:34:40.669Z,18.64
2018-09-09T07:35:40.628Z,18.59
2018-09-09T07:36:40.591Z,18.57
2018-09-09T07:37:40.597Z,18.60
2018-09-09T07:38:40.553Z,18.62
2018-09-09T07:57:32.644Z,18.31
2018-09-09T07:58:32.579Z,18.26
2018-09-09T07:59:53.545Z,18.35
2018-09-09T08:00:32.534Z,18.41
2018-09-09T08:02:01.290Z,18.34
2018-09-09T08:02:32.467Z,18.42
2018-09-09T08:03:43.285Z,18.53
2018-09-09T08:04:32.426Z,18.50
2018-09-09T08:05:44.293Z,18.50
2018-09-09T08:06:32.367Z,18.53
2018-09-09T08:07:43.296Z,18.60
2018-09-09T08:08:32.344Z,18.56
2018-09-09T08:09:45.300Z,18.68
2018-09-09T08:26:26.888Z,19.01
2018-09-09T08:27:28.850Z,18.94
2018-09-09T08:28:26.837Z,19.16
2018-09-09T08:29:26.814Z,19.13
2018-09-09T08:30:26.759Z,19.13
2018-09-09T08:31:42.660Z,19.17
2018-09-09T08:32:26.705Z,19.17
2018-09-09T08:33:59.618Z,19.23
2018-09-09T08:34:26.651Z,19.28
2018-09-09T08:35:26.636Z,19.24
2018-09-09T08:36:47.597Z,19.43
2018-09-09T08:37:26.571Z,19.27
2018-09-09T08:38:26.549Z,19.32
2018-09-09T08:39:37.075Z,19.30
2018-09-09T08:40:26.503Z,19.28
2018-09-09T09:05:04.745Z,20.40
2018-09-09T09:06:04.692Z,20.37
2018-09-09T09:07:04.706Z,20.35
2018-09-09T09:08:04.658Z,20.33
2018-09-09T09:09:04.617Z,20.37
2018-09-09T09:10:04.588Z,20.42
2018-09-09T09:11:04.575Z,20.44
2018-09-09T09:12:04.537Z,20.31
2018-09-09T09:13:04.514Z,20.30
2018-09-09T09:14:04.502Z,20.33
2018-09-09T09:15:04.484Z,20.38
2018-09-09T09:16:04.433Z,20.35
2018-09-09T09:17:04.414Z,20.35
2018-09-09T09:18:04.402Z,20.40
2018-09-09T09:19:09.124Z,20.34
2018-09-09T09:20:04.362Z,20.33
2018-09-09T09:21:04.321Z,20.41
2018-09-09T09:22:04.299Z,20.53
2018-09-09T09:23:05.280Z,20.48
2018-09-09T09:24:04.232Z,20.57
2018-09-09T09:25:04.227Z,20.61
2018-09-09T09:26:04.186Z,20.64
2018-09-09T09:27:04.179Z,20.68
2018-09-09T09:28:04.140Z,20.71
2018-09-09T09:29:04.128Z,20.68
2018-09-09T09:30:04.090Z,20.64
2018-09-09T09:31:04.062Z,20.82
2018-09-09T09:32:04.040Z,20.75
2018-09-09T09:33:04.022Z,20.72
2018-09-09T09:34:03.993Z,20.76
2018-09-09T09:35:03.973Z,20.79
2018-09-09T09:36:03.933Z,20.90
2018-09-09T09:37:03.917Z,20.98
2018-09-09T09:38:03.884Z,21.03
2018-09-09T09:39:03.866Z,21.12
2018-09-09T09:40:03.866Z,21.26
2018-09-09T09:41:03.817Z,21.37
2018-09-09T09:42:03.784Z,21.40
2018-09-09T09:43:03.768Z,21.53
2018-09-09T09:44:03.749Z,21.63
2018-09-09T09:45:03.711Z,21.55
2018-09-09T09:46:03.682Z,21.56
2018-09-09T09:47:03.681Z,21.43
2018-09-09T09:48:03.647Z,21.42
2018-09-09T09:49:03.621Z,21.37
2018-09-09T09:50:03.593Z,21.15
2018-09-09T09:51:03.571Z,21.06
2018-09-09T09:52:03.573Z,21.03
2018-09-09T09:53:03.535Z,21.06
2018-09-09T09:54:03.489Z,21.08
2018-09-09T09:55:03.470Z,21.16
2018-09-09T09:56:03.505Z,21.13
2018-09-09T09:57:03.417Z,21.26
2018-09-09T09:58:03.387Z,21.26
2018-09-09T09:59:03.367Z,21.28
2018-09-09T10:00:03.346Z,21.30
2018-09-09T10:01:03.328Z,21.36
2018-09-09T10:02:03.290Z,21.42
2018-09-09T10:03:03.259Z,21.59
2018-09-09T10:04:03.235Z,21.66
2018-09-09T10:05:04.234Z,21.73
2018-09-09T10:06:03.188Z,21.77
2018-09-09T10:07:04.165Z,21.85
2018-09-09T10:08:03.138Z,21.73
2018-09-09T10:09:07.653Z,21.75
2018-09-09T10:10:03.083Z,21.68
2018-09-09T10:11:04.067Z,21.68
2018-09-09T10:12:03.044Z,21.64
2018-09-09T10:13:03.017Z,21.48
2018-09-09T10:14:02.985Z,21.43
2018-09-09T10:15:02.985Z,21.36
2018-09-09T10:16:02.956Z,21.27
2018-09-09T10:17:02.921Z,21.19
2018-09-09T10:18:02.879Z,21.28
2018-09-09T10:19:02.858Z,21.34
2018-09-09T10:20:02.825Z,21.33
2018-09-09T10:21:04.808Z,21.36
2018-09-09T10:22:02.783Z,21.34
2018-09-09T10:23:03.796Z,21.21
2018-09-09T10:24:02.726Z,21.27
2018-09-09T10:25:02.704Z,21.37
2018-09-09T10:26:02.677Z,21.42
2018-09-09T10:27:04.672Z,21.51
2018-09-09T10:28:02.631Z,21.43
2018-09-09T10:29:02.619Z,21.42
2018-09-09T10:30:02.655Z,21.40
2018-09-09T10:31:02.577Z,21.46
2018-09-09T10:32:02.561Z,21.61
2018-09-09T10:33:02.514Z,21.74
2018-09-09T10:34:02.478Z,21.74
2018-09-09T10:35:02.456Z,21.96
2018-09-09T10:36:02.432Z,22.19
2018-09-09T10:37:03.420Z,22.12
2018-09-09T10:38:02.397Z,22.06
2018-09-09T10:39:02.355Z,21.94
2018-09-09T10:40:02.334Z,21.96
2018-09-09T10:41:02.309Z,21.99
2018-09-09T10:42:02.285Z,21.85
2018-09-09T10:43:03.265Z,21.89
2018-09-09T10:44:02.236Z,21.83
2018-09-09T10:45:03.236Z,21.86
2018-09-09T10:46:50.284Z,21.75
2018-09-09T10:47:50.194Z,21.77
2018-09-09T10:48:51.128Z,21.83
2018-09-09T10:49:50.099Z,21.75
2018-09-09T10:50:51.081Z,21.74
2018-09-09T10:51:50.052Z,21.74
2018-09-09T10:52:50.029Z,21.79
2018-09-09T10:53:50.004Z,21.83
2018-09-09T10:54:55.928Z,21.93
2018-09-09T10:55:49.952Z,21.98
2018-09-09T10:56:50.939Z,22.24
2018-09-09T10:57:49.921Z,22.35
2018-09-09T10:58:49.957Z,22.30
2018-09-09T10:59:49.849Z,22.39
2018-09-09T11:00:49.830Z,22.44
2018-09-09T11:01:49.866Z,22.46
2018-09-09T11:02:50.793Z,22.46
2018-09-09T11:03:49.745Z,22.42
2018-09-09T11:04:49.732Z,22.48
2018-09-09T11:05:49.701Z,22.52
2018-09-09T11:06:49.783Z,22.45
2018-09-09T11:07:49.661Z,22.42
2018-09-09T11:08:50.631Z,22.52
2018-09-09T11:09:49.601Z,22.44
2018-09-09T11:10:49.598Z,22.52
2018-09-09T11:11:49.551Z,22.54
2018-09-09T11:12:49.575Z,22.57
2018-09-09T11:13:49.512Z,22.63
2018-09-09T11:14:49.483Z,22.69
2018-09-09T11:15:49.457Z,22.76
2018-09-09T11:17:19.427Z,22.74
2018-09-09T11:17:49.416Z,22.94
2018-09-09T11:18:49.390Z,22.88
2018-09-09T11:19:49.348Z,22.91
2018-09-09T11:20:51.929Z,23.11
2018-09-09T11:21:49.306Z,23.16
2018-09-09T11:22:49.291Z,23.34
2018-09-09T11:23:49.264Z,23.22
2018-09-09T11:24:49.238Z,23.03
2018-09-09T11:25:50.274Z,23.12
2018-09-09T11:26:49.189Z,23.15
2018-09-09T11:27:49.184Z,23.12
2018-09-09T11:28:49.130Z,23.19
2018-09-09T11:29:49.145Z,23.14
2018-09-09T11:30:49.073Z,23.07
2018-09-09T11:31:50.074Z,22.74
2018-09-09T11:32:49.032Z,22.57
2018-09-09T11:33:51.018Z,22.49
2018-09-09T11:34:48.991Z,22.46
2018-09-09T11:35:49.973Z,22.60
2018-09-09T11:36:49.927Z,22.72
2018-09-09T11:37:48.920Z,22.99
2018-09-09T11:38:48.884Z,23.19
2018-09-09T11:39:48.917Z,23.38
2018-09-09T11:40:49.052Z,23.56
2018-09-09T11:41:48.828Z,23.52
2018-09-09T11:42:48.796Z,23.57
2018-09-09T11:43:48.782Z,23.54
2018-09-09T11:44:48.739Z,23.62
2018-09-09T11:45:49.729Z,23.56
2018-09-09T11:46:48.679Z,23.47
2018-09-09T11:47:48.677Z,23.42
2018-09-09T11:48:48.654Z,23.38
2018-09-09T11:50:05.454Z,23.31
2018-09-09T11:50:48.596Z,23.31
2018-09-09T11:51:49.573Z,23.50
2018-09-09T11:52:48.549Z,23.53
2018-09-09T11:53:48.521Z,23.60
2018-09-09T11:54:48.495Z,23.59
2018-09-09T11:55:48.479Z,23.59
2018-09-09T11:56:48.452Z,23.60
2018-09-09T11:57:48.420Z,23.63
2018-09-09T11:58:48.391Z,23.79
2018-09-09T11:59:48.374Z,23.86
2018-09-09T12:00:48.357Z,23.86
2018-09-09T12:01:49.339Z,23.93
2018-09-09T12:02:48.303Z,23.81
2018-09-09T12:03:48.279Z,23.90
2018-09-09T12:04:48.247Z,23.93
2018-09-09T12:05:48.241Z,23.96
2018-09-09T12:06:48.189Z,23.96
2018-09-09T12:07:48.172Z,24.05
2018-09-09T12:08:48.154Z,24.14
2018-09-09T12:09:49.130Z,24.09
2018-09-09T12:10:48.107Z,24.19
2018-09-09T12:11:48.077Z,24.14
2018-09-09T12:12:48.045Z,24.24
2018-09-09T12:13:48.159Z,24.16
2018-09-09T12:14:48.010Z,24.18
2018-09-09T12:15:47.975Z,24.19
2018-09-09T12:16:47.968Z,24.23
2018-09-09T12:17:47.946Z,24.26
2018-09-09T12:18:47.900Z,24.27
2018-09-09T12:19:47.883Z,24.16
2018-09-09T12:20:47.846Z,24.31
2018-09-09T12:21:47.845Z,24.19
2018-09-09T12:22:47.802Z,24.14
2018-09-09T12:23:47.780Z,24.11
2018-09-09T12:24:47.755Z,24.05
2018-09-09T12:25:47.746Z,24.12
2018-09-09T12:26:47.709Z,24.00
2018-09-09T12:27:47.686Z,23.87
2018-09-09T12:28:47.665Z,23.94
2018-09-09T12:29:47.687Z,23.94
2018-09-09T12:30:47.605Z,23.97
2018-09-09T12:31:47.592Z,24.14
2018-09-09T12:32:47.581Z,24.16
2018-09-09T12:33:47.548Z,24.23
2018-09-09T12:34:47.516Z,24.16
2018-09-09T12:35:48.489Z,24.18
2018-09-09T12:36:47.479Z,24.21
2018-09-09T12:37:47.501Z,24.33
2018-09-09T12:38:47.420Z,24.29
2018-09-09T12:39:47.402Z,24.16
2018-09-09T12:40:47.366Z,24.21
2018-09-09T12:41:47.353Z,24.14
2018-09-09T12:42:47.325Z,24.06
2018-09-09T12:43:47.328Z,23.92
2018-09-09T12:45:33.558Z,23.74
2018-09-09T12:46:33.498Z,23.78
2018-09-09T12:47:33.462Z,23.75
2018-09-09T12:48:33.505Z,23.77
2018-09-09T12:49:33.405Z,23.82
2018-09-09T12:50:33.400Z,23.77
2018-09-09T12:51:33.358Z,23.77
2018-09-09T12:52:34.387Z,23.79
2018-09-09T12:53:33.318Z,23.79
2018-09-09T12:54:33.298Z,23.75
2018-09-09T12:55:33.270Z,23.89
2018-09-09T12:56:33.264Z,23.90
2018-09-09T12:57:33.223Z,23.99
2018-09-09T12:58:33.212Z,24.02
2018-09-09T12:59:33.183Z,23.97
2018-09-09T13:00:33.209Z,24.04
2018-09-09T13:01:33.136Z,24.09
2018-09-09T13:02:33.099Z,24.18
2018-09-09T13:03:33.079Z,24.11
2018-09-09T13:04:33.065Z,24.06
2018-09-09T13:05:33.026Z,24.16
2018-09-09T13:06:33.045Z,24.18
2018-09-09T13:07:32.996Z,24.18
2018-09-09T13:08:32.963Z,24.26
2018-09-09T13:09:32.930Z,24.24
2018-09-09T13:10:32.921Z,24.29
2018-09-09T13:11:32.895Z,24.29
2018-09-09T13:12:32.863Z,24.44
2018-09-09T13:13:32.855Z,24.59
2018-09-09T13:14:32.810Z,24.53
2018-09-09T13:15:32.795Z,24.49
2018-09-09T13:16:53.783Z,24.48
2018-09-09T13:17:32.747Z,24.48
2018-09-09T13:18:32.726Z,24.48
2018-09-09T13:19:32.706Z,24.42
2018-09-09T13:20:32.747Z,24.31
2018-09-09T13:21:32.653Z,24.29
2018-09-09T13:22:38.434Z,24.26
2018-09-09T13:23:32.601Z,24.23
2018-09-09T13:24:33.587Z,24.05
2018-09-09T13:25:32.552Z,24.16
2018-09-09T13:26:32.572Z,24.18
2018-09-09T13:27:32.508Z,24.14
2018-09-09T13:28:39.397Z,24.16
2018-09-09T13:29:32.458Z,24.27
2018-09-09T13:30:43.397Z,24.33
2018-09-09T13:31:32.414Z,24.46
2018-09-09T13:32:38.896Z,24.49
2018-09-09T13:33:32.380Z,24.48
2018-09-09T13:34:32.358Z,24.55
2018-09-09T13:35:32.321Z,24.46
2018-09-09T13:36:36.900Z,24.45
2018-09-09T13:37:32.264Z,24.52
2018-09-09T13:38:32.244Z,24.42
2018-09-09T13:39:32.391Z,24.44
2018-09-09T13:40:33.194Z,24.44
2018-09-09T13:41:32.207Z,24.31
2018-09-09T13:42:32.137Z,24.31
2018-09-09T13:43:32.143Z,24.34
2018-09-09T13:44:32.093Z,24.29
2018-09-09T13:45:32.075Z,24.48
2018-09-09T13:46:44.999Z,24.51
2018-09-09T13:47:32.017Z,24.41
2018-09-09T13:48:34.057Z,24.31
2018-09-09T13:49:31.979Z,24.42
2018-09-09T13:50:33.958Z,24.34
2018-09-09T13:51:31.934Z,24.31
2018-09-09T13:52:33.921Z,24.26